Time;durP1;ratioP1;P1;durP2;ratioP2;P2;SDS_P1;SDS_P2;PMS_P1;PMS_P2;Temp;Humidity;BMP_temperature;BMP_pressure;BME280_temperature;BME280_humidity;BME280_pressure;Samples;Min_cycle;Max_cycle;Signal;HPM_P1;HPM_P2
2023/08/06 00:01:28;;;;;;;5.68;2.95;;;14.20;99.90;;;;;;5028715;28;20037;-61
2023/08/06 00:03:55;;;;;;;2.45;2.20;;;14.20;99.90;;;;;;5024316;28;20076;-59
2023/08/06 00:06:22;;;;;;;4.20;2.13;;;14.20;99.90;;;;;;5025598;28;20040;-59
2023/08/06 00:08:49;;;;;;;2.13;1.90;;;14.10;99.90;;;;;;5020842;28;20038;-61
2023/08/06 00:11:15;;;;;;;2.20;2.00;;;14.10;99.90;;;;;;5028143;28;20044;-61
2023/08/06 00:13:42;;;;;;;3.63;2.63;;;14.10;99.90;;;;;;5030168;28;20390;-61
2023/08/06 00:16:11;;;;;;;3.72;3.05;;;14.10;99.90;;;;;;5016848;28;20462;-60
2023/08/06 00:18:38;;;;;;;2.42;2.22;;;14.10;99.90;;;;;;5029181;28;20045;-57
2023/08/06 00:21:05;;;;;;;2.63;1.50;;;14.10;99.90;;;;;;5031065;28;20116;-58
2023/08/06 00:23:32;;;;;;;4.13;2.10;;;14.00;99.90;;;;;;5027273;28;20604;-57
2023/08/06 00:25:59;;;;;;;2.88;1.95;;;13.90;99.90;;;;;;5020751;28;20041;-60
2023/08/06 00:28:26;;;;;;;3.03;1.73;;;13.90;99.90;;;;;;5023208;28;20509;-61
2023/08/06 00:30:56;;;;;;;3.03;2.00;;;13.80;99.90;;;;;;5022105;28;20112;-60
2023/08/06 00:33:23;;;;;;;6.40;4.28;;;13.80;99.90;;;;;;5011815;28;20045;-59
2023/08/06 00:35:51;;;;;;;10.43;5.70;;;13.80;99.90;;;;;;5012239;28;20045;-59
2023/08/06 00:38:18;;;;;;;6.65;5.18;;;13.90;99.90;;;;;;5012819;28;20060;-61
2023/08/06 00:40:44;;;;;;;6.80;5.30;;;14.00;99.90;;;;;;5022819;28;20051;-61
2023/08/06 00:43:11;;;;;;;9.93;3.13;;;14.00;99.90;;;;;;5029338;28;20048;-60
2023/08/06 00:45:38;;;;;;;3.65;2.70;;;14.00;99.90;;;;;;5013018;28;20053;-61
2023/08/06 00:48:06;;;;;;;5.10;2.08;;;13.90;99.90;;;;;;5004635;28;20096;-59
2023/08/06 00:50:34;;;;;;;4.20;2.13;;;13.90;99.90;;;;;;5027977;28;20606;-60
2023/08/06 00:53:01;;;;;;;4.25;2.08;;;14.00;99.90;;;;;;5030179;28;20049;-60
2023/08/06 00:55:29;;;;;;;3.40;1.67;;;13.90;99.90;;;;;;5004320;28;20072;-61
2023/08/06 00:57:56;;;;;;;3.28;2.15;;;13.90;99.90;;;;;;5022578;28;20482;-60
2023/08/06 01:00:24;;;;;;;;;;;13.90;99.90;;;;;;5012126;28;20045;-61
2023/08/06 01:02:52;;;;;;;5.10;2.05;;;13.90;99.90;;;;;;5028310;28;19983;-59
2023/08/06 01:05:21;;;;;;;2.92;1.77;;;13.90;99.90;;;;;;5030803;28;20119;-59
2023/08/06 01:08:03;;;;;;;5.00;2.00;;;14.00;99.90;;;;;;5011736;28;20041;-58
2023/08/06 01:10:47;;;;;;;3.35;1.60;;;14.00;99.90;;;;;;5029674;28;20095;-60
2023/08/06 01:13:41;;;;;;;2.13;1.60;;;13.90;99.90;;;;;;5012176;28;20083;-59
2023/08/06 01:16:09;;;;;;;2.67;1.90;;;13.90;99.90;;;;;;5031012;28;20044;-59
2023/08/06 01:18:38;;;;;;;3.30;1.88;;;13.90;99.90;;;;;;5010509;28;20049;-61
2023/08/06 01:21:05;;;;;;;2.38;1.67;;;13.80;99.90;;;;;;5012630;28;20049;-60
2023/08/06 01:23:33;;;;;;;4.10;1.45;;;13.80;99.90;;;;;;5018651;28;20041;-56
2023/08/06 01:26:25;;;;;;;3.17;1.73;;;13.90;99.90;;;;;;5023063;28;20045;-59
2023/08/06 01:28:55;;;;;;;3.08;2.20;;;13.80;99.90;;;;;;5009247;28;20049;-61
2023/08/06 01:31:27;;;;;;;5.07;2.22;;;13.80;99.90;;;;;;5006799;28;20140;-60
2023/08/06 01:33:56;;;;;;;1.90;1.70;;;13.80;99.90;;;;;;5003411;28;21974;-61
2023/08/06 01:36:23;;;;;;;6.30;2.08;;;13.80;99.90;;;;;;5016358;28;20044;-58
2023/08/06 01:38:53;;;;;;;3.58;2.22;;;14.20;99.90;;;;;;5005931;28;20056;-60
2023/08/06 01:41:20;;;;;;;5.18;2.40;;;13.80;99.90;;;;;;5016120;28;20037;-59
2023/08/06 01:43:47;;;;;;;5.82;3.35;;;13.80;99.90;;;;;;5007896;28;20494;-60
2023/08/06 01:46:14;;;;;;;6.22;3.63;;;13.80;99.90;;;;;;5026433;28;20061;-60
2023/08/06 01:48:40;;;;;;;9.20;3.92;;;13.80;99.90;;;;;;5016370;28;20484;-57
2023/08/06 01:51:07;;;;;;;10.73;4.07;;;13.80;99.90;;;;;;5007864;28;20056;-59
2023/08/06 01:53:34;;;;;;;5.03;3.42;;;13.80;99.90;;;;;;5011339;28;20491;-60
2023/08/06 01:56:01;;;;;;;5.15;3.80;;;13.80;99.90;;;;;;5025552;28;20116;-61
2023/08/06 01:58:28;;;;;;;7.30;3.47;;;13.80;99.90;;;;;;5016254;28;20095;-59
2023/08/06 02:00:55;;;;;;;4.50;4.07;;;13.80;99.90;;;;;;5004545;28;20387;-58
2023/08/06 02:03:23;;;;;;;4.97;3.60;;;13.90;99.90;;;;;;5028012;28;20038;-61
2023/08/06 02:05:50;;;;;;;3.83;3.30;;;13.90;99.90;;;;;;5032501;28;20033;-61
2023/08/06 02:08:20;;;;;;;4.13;3.20;;;13.90;99.90;;;;;;5001393;28;20100;-57
2023/08/06 02:10:47;;;;;;;4.80;3.40;;;13.90;99.90;;;;;;5022148;28;20546;-61
2023/08/06 02:13:13;;;;;;;5.35;3.10;;;13.90;99.90;;;;;;5015543;28;20497;-60
2023/08/06 02:15:44;;;;;;;7.85;3.47;;;13.90;99.90;;;;;;5011016;28;20044;-60
2023/08/06 02:18:11;;;;;;;5.78;3.45;;;13.90;99.90;;;;;;5015624;28;20045;-61
2023/08/06 02:20:37;;;;;;;5.65;3.45;;;13.90;99.90;;;;;;5032844;28;20042;-59
2023/08/06 02:23:04;;;;;;;5.75;3.10;;;13.80;99.90;;;;;;5025807;28;20053;-59
2023/08/06 02:25:31;;;;;;;6.00;3.30;;;13.80;99.90;;;;;;5014248;28;20510;-60
2023/08/06 02:27:59;;;;;;;5.40;3.47;;;13.70;99.90;;;;;;5015682;28;20056;-59
2023/08/06 02:30:26;;;;;;;3.60;2.90;;;13.70;99.90;;;;;;5014200;28;20046;-60
2023/08/06 02:32:52;;;;;;;6.00;3.35;;;13.70;99.90;;;;;;5011698;28;20046;-58
2023/08/06 02:35:19;;;;;;;5.88;3.13;;;13.70;99.90;;;;;;5015119;28;20050;-61
2023/08/06 02:37:46;;;;;;;4.00;2.78;;;13.70;99.90;;;;;;5015189;28;20041;-60
2023/08/06 02:40:13;;;;;;;3.95;2.95;;;13.60;99.90;;;;;;5006847;28;20140;-59
2023/08/06 02:42:40;;;;;;;8.48;3.15;;;13.50;99.90;;;;;;5024054;28;20045;-61
2023/08/06 02:45:07;;;;;;;10.07;3.63;;;13.50;99.90;;;;;;4994485;28;20045;-60
2023/08/06 02:47:34;;;;;;;4.57;3.30;;;13.50;99.90;;;;;;5014980;28;20073;-58
2023/08/06 02:50:01;;;;;;;5.15;3.22;;;13.50;99.90;;;;;;5014528;28;20046;-61
2023/08/06 02:52:29;;;;;;;4.25;3.15;;;13.50;99.90;;;;;;5013710;28;20033;-60
2023/08/06 02:54:57;;;;;;;7.35;2.92;;;13.50;99.90;;;;;;5006145;28;20053;-59
2023/08/06 02:57:24;;;;;;;7.07;3.60;;;13.50;99.90;;;;;;5015175;28;20495;-61
2023/08/06 02:59:53;;;;;;;9.77;3.75;;;13.60;99.90;;;;;;5010992;28;20502;-61
2023/08/06 03:02:22;;;;;;;4.70;3.60;;;13.60;99.90;;;;;;5027421;28;20498;-59
2023/08/06 03:05:09;;;;;;;7.57;3.70;;;13.60;99.90;;;;;;4982112;28;20391;-60
2023/08/06 03:07:42;;;;;;;4.60;3.80;;;13.60;99.90;;;;;;5014750;28;20037;-61
2023/08/06 03:10:14;;;;;;;5.88;4.60;;;13.70;99.90;;;;;;5007273;28;20034;-60
2023/08/06 03:12:43;;;;;;;7.13;4.35;;;13.70;99.90;;;;;;5013974;28;20045;-61
2023/08/06 03:15:10;;;;;;;6.20;4.35;;;13.60;99.90;;;;;;5009980;28;20441;-61
2023/08/06 03:17:37;;;;;;;7.72;3.88;;;13.60;99.90;;;;;;5008158;28;20052;-60
2023/08/06 03:20:06;;;;;;;5.10;3.88;;;13.60;99.90;;;;;;5030327;28;20473;-60
2023/08/06 03:22:34;;;;;;;4.63;3.53;;;13.60;99.90;;;;;;5013559;28;20375;-59
2023/08/06 03:25:01;;;;;;;7.10;3.25;;;13.50;99.90;;;;;;5025998;28;20461;-61
2023/08/06 03:27:28;;;;;;;8.82;3.42;;;13.50;99.90;;;;;;5007610;28;20052;-61
2023/08/06 03:29:55;;;;;;;6.18;3.50;;;13.50;99.90;;;;;;5014191;28;20521;-59
2023/08/06 03:32:25;;;;;;;5.13;2.83;;;13.40;99.90;;;;;;5007976;28;20139;-59
2023/08/06 03:34:53;;;;;;;6.85;2.65;;;13.50;99.90;;;;;;5008250;28;20061;-60
2023/08/06 03:37:21;;;;;;;5.00;3.08;;;13.50;99.90;;;;;;5013749;28;20641;-58
2023/08/06 03:39:50;;;;;;;4.55;2.83;;;13.50;99.90;;;;;;5014224;28;20045;-59
2023/08/06 03:42:17;;;;;;;9.00;3.30;;;13.50;99.90;;;;;;5031238;28;20039;-59
2023/08/06 03:44:43;;;;;;;5.85;2.67;;;13.50;99.90;;;;;;5031409;28;20084;-61
2023/08/06 03:47:10;;;;;;;3.35;3.00;;;13.40;99.90;;;;;;5026609;28;20064;-59
2023/08/06 03:49:37;;;;;;;6.70;2.67;;;13.40;99.90;;;;;;5009510;28;20582;-60
2023/08/06 03:52:05;;;;;;;6.20;3.25;;;13.40;99.90;;;;;;5029944;28;20037;-59
2023/08/06 03:54:32;;;;;;;4.47;3.42;;;13.30;99.90;;;;;;5025617;28;20064;-60
2023/08/06 03:56:59;;;;;;;4.28;2.97;;;13.30;99.90;;;;;;5027284;28;20409;-59
2023/08/06 03:59:25;;;;;;;4.32;3.17;;;13.30;99.90;;;;;;5032129;28;20049;-61
2023/08/06 04:01:52;;;;;;;4.90;3.15;;;13.30;99.90;;;;;;5012603;28;20438;-61
2023/08/06 04:04:19;;;;;;;;;;;13.30;99.90;;;;;;5005428;28;20080;-60
2023/08/06 04:06:46;;;;;;;5.53;3.10;;;13.30;99.90;;;;;;5029966;28;20525;-60
2023/08/06 04:09:13;;;;;;;3.63;3.13;;;13.20;99.90;;;;;;5013540;28;20053;-61
2023/08/06 04:11:40;;;;;;;5.18;3.10;;;13.20;99.90;;;;;;5012833;28;20047;-59
2023/08/06 04:14:08;;;;;;;5.30;3.03;;;13.20;99.90;;;;;;5030422;28;20034;-60
2023/08/06 04:16:35;;;;;;;6.28;3.33;;;13.20;99.90;;;;;;5013304;28;20034;-60
2023/08/06 04:19:02;;;;;;;6.88;3.17;;;13.10;99.90;;;;;;5009893;28;20104;-61
2023/08/06 04:21:28;;;;;;;5.57;3.30;;;13.10;99.90;;;;;;5012448;28;20041;-57
2023/08/06 04:23:56;;;;;;;5.65;3.92;;;13.10;99.90;;;;;;5012508;28;20453;-61
2023/08/06 04:26:23;;;;;;;;;;;13.20;99.90;;;;;;5013531;28;20086;-60
2023/08/06 04:28:49;;;;;;;5.03;3.35;;;13.10;99.90;;;;;;5012633;28;20277;-60
2023/08/06 04:31:16;;;;;;;3.72;2.67;;;13.20;99.90;;;;;;5012867;28;20037;-60
2023/08/06 04:33:44;;;;;;;6.70;3.10;;;13.20;99.90;;;;;;5012537;28;20037;-60
2023/08/06 04:36:13;;;;;;;5.78;3.17;;;13.20;99.90;;;;;;5008505;28;20061;-61
2023/08/06 04:38:44;;;;;;;5.53;2.95;;;13.20;99.90;;;;;;5004866;28;20680;-59
2023/08/06 04:41:13;;;;;;;7.72;2.63;;;13.20;99.90;;;;;;5006117;28;20049;-60
2023/08/06 04:43:40;;;;;;;4.85;2.90;;;13.30;99.90;;;;;;5025810;28;20451;-59
2023/08/06 04:46:07;;;;;;;5.28;3.08;;;13.30;99.90;;;;;;5005878;28;20041;-60
2023/08/06 04:48:34;;;;;;;4.85;2.78;;;13.40;99.90;;;;;;5024496;28;20038;-60
2023/08/06 04:51:00;;;;;;;4.95;3.45;;;13.30;99.90;;;;;;5025470;28;20046;-58
2023/08/06 04:53:27;;;;;;;3.60;2.47;;;13.30;99.90;;;;;;5020623;28;20033;-63
2023/08/06 04:55:54;;;;;;;3.40;2.35;;;13.40;99.90;;;;;;5028690;28;20406;-60
2023/08/06 04:58:21;;;;;;;5.50;2.58;;;13.30;99.90;;;;;;5023985;28;20045;-61
2023/08/06 05:00:47;;;;;;;4.22;2.75;;;13.30;99.90;;;;;;5027054;28;20040;-61
2023/08/06 05:03:14;;;;;;;3.00;2.35;;;13.40;99.90;;;;;;5024457;28;20064;-60
2023/08/06 05:05:41;;;;;;;3.83;2.38;;;14.10;99.90;;;;;;5024056;28;20045;-59
2023/08/06 05:08:15;;;;;;;5.65;3.38;;;13.40;99.90;;;;;;5030287;28;20046;-59
2023/08/06 05:10:44;;;;;;;4.80;2.70;;;13.50;99.90;;;;;;5028067;28;20048;-61
2023/08/06 05:13:11;;;;;;;5.60;2.95;;;13.50;99.90;;;;;;5033323;28;20037;-59
2023/08/06 05:15:39;;;;;;;4.22;3.15;;;13.50;99.90;;;;;;5034505;28;20045;-61
2023/08/06 05:18:06;;;;;;;4.22;2.78;;;13.60;99.90;;;;;;5032851;28;20061;-61
2023/08/06 05:20:37;;;;;;;3.88;2.58;;;13.70;99.90;;;;;;5016781;28;20088;-58
2023/08/06 05:23:04;;;;;;;3.47;2.20;;;13.60;99.90;;;;;;5007438;28;20052;-59
2023/08/06 05:25:31;;;;;;;3.53;2.45;;;13.50;99.90;;;;;;5016756;28;20176;-60
2023/08/06 05:27:58;;;;;;;4.43;2.25;;;13.50;99.90;;;;;;5013867;28;20494;-60
2023/08/06 05:30:25;;;;;;;4.97;2.83;;;13.60;99.90;;;;;;5013635;28;20053;-61
2023/08/06 05:32:51;;;;;;;3.70;2.50;;;13.70;99.90;;;;;;5022914;28;20415;-61
2023/08/06 05:35:18;;;;;;;3.95;2.85;;;13.70;99.90;;;;;;5031102;28;20080;-61
2023/08/06 05:37:45;;;;;;;5.22;3.10;;;13.70;99.90;;;;;;5027317;28;20042;-60
2023/08/06 05:40:12;;;;;;;5.25;2.85;;;13.80;99.90;;;;;;5024078;28;20048;-60
2023/08/06 05:42:40;;;;;;;4.90;3.40;;;14.00;99.90;;;;;;5032450;28;20049;-59
2023/08/06 05:45:08;;;;;;;5.05;3.45;;;14.00;99.90;;;;;;5025181;28;20050;-60
2023/08/06 05:47:34;;;;;;;6.80;2.80;;;14.10;99.90;;;;;;5015183;28;20486;-60
2023/08/06 05:50:01;;;;;;;4.22;2.17;;;14.20;99.90;;;;;;5032960;28;20076;-61
2023/08/06 05:52:28;;;;;;;4.78;1.90;;;14.10;99.90;;;;;;5024999;28;20038;-61
2023/08/06 05:54:55;;;;;;;2.33;2.03;;;14.10;99.90;;;;;;5022594;28;20072;-61
2023/08/06 05:57:21;;;;;;;3.05;2.30;;;14.20;99.90;;;;;;5029261;28;20047;-60
2023/08/06 05:59:48;;;;;;;5.78;2.28;;;14.20;99.90;;;;;;5029369;28;20046;-61
2023/08/06 06:02:16;;;;;;;1.98;1.75;;;14.20;99.90;;;;;;5032157;28;20049;-61
2023/08/06 06:04:42;;;;;;;4.70;2.17;;;14.20;99.90;;;;;;5033905;28;20051;-60
2023/08/06 06:07:09;;;;;;;5.65;2.08;;;14.20;99.90;;;;;;5031960;28;20041;-59
2023/08/06 06:09:36;;;;;;;4.00;1.92;;;14.20;99.90;;;;;;5033895;28;20044;-59
2023/08/06 06:12:03;;;;;;;4.55;2.70;;;14.20;99.90;;;;;;5029538;28;20042;-61
2023/08/06 06:14:30;;;;;;;5.85;2.40;;;14.10;99.90;;;;;;5025954;28;20119;-60
2023/08/06 06:16:56;;;;;;;3.85;2.72;;;14.20;99.90;;;;;;5024475;28;20051;-60
2023/08/06 06:19:23;;;;;;;5.20;3.15;;;14.30;99.90;;;;;;5026398;28;20501;-61
2023/08/06 06:21:51;;;;;;;5.93;3.00;;;14.70;99.90;;;;;;5024741;28;20129;-60
2023/08/06 06:24:18;;;;;;;3.50;2.75;;;14.50;99.90;;;;;;5029357;28;20107;-61
2023/08/06 06:26:44;;;;;;;7.07;2.58;;;14.60;99.90;;;;;;5033708;28;20046;-61
2023/08/06 06:29:11;;;;;;;5.47;2.28;;;14.60;99.90;;;;;;5031733;28;20049;-61
2023/08/06 06:31:38;;;;;;;2.92;2.25;;;14.50;99.90;;;;;;5029920;28;20038;-59
2023/08/06 06:34:05;;;;;;;2.25;1.90;;;14.50;99.90;;;;;;5031053;28;20489;-60
2023/08/06 06:36:31;;;;;;;4.18;2.38;;;14.40;99.90;;;;;;5033561;28;20060;-60
2023/08/06 06:38:58;;;;;;;4.78;2.38;;;14.40;99.90;;;;;;5032810;28;20064;-61
2023/08/06 06:41:26;;;;;;;5.88;2.95;;;14.40;99.90;;;;;;5033127;28;20047;-57
2023/08/06 06:43:53;;;;;;;4.68;2.10;;;14.40;99.90;;;;;;5028729;28;20149;-60
2023/08/06 06:46:19;;;;;;;2.85;1.60;;;14.50;99.90;;;;;;5032232;28;20313;-60
2023/08/06 06:48:46;;;;;;;5.78;1.77;;;14.60;99.90;;;;;;5032594;28;20041;-60
2023/08/06 06:51:13;;;;;;;2.75;1.80;;;14.70;99.90;;;;;;5023907;28;20401;-60
2023/08/06 06:53:40;;;;;;;2.55;1.95;;;14.70;99.90;;;;;;5032226;28;20068;-61
2023/08/06 06:56:07;;;;;;;4.75;2.47;;;14.80;99.90;;;;;;5032454;28;20048;-60
2023/08/06 06:58:33;;;;;;;3.47;2.38;;;14.80;99.90;;;;;;5032563;28;20475;-59
2023/08/06 07:01:00;;;;;;;2.20;2.00;;;14.90;99.90;;;;;;5032730;28;20049;-58
2023/08/06 07:03:27;;;;;;;5.22;2.00;;;15.00;99.90;;;;;;5029451;28;20406;-61
2023/08/06 07:05:58;;;;;;;4.35;2.20;;;15.00;99.90;;;;;;5031005;28;20505;-61
2023/08/06 07:08:25;;;;;;;4.68;2.38;;;15.10;99.90;;;;;;5027242;28;20048;-61
2023/08/06 07:11:03;;;;;;;5.57;2.75;;;15.10;99.90;;;;;;5031099;28;20638;-61
2023/08/06 07:13:30;;;;;;;4.35;2.22;;;15.20;99.90;;;;;;5027017;28;20387;-58
2023/08/06 07:15:57;;;;;;;3.17;2.15;;;15.20;99.90;;;;;;5030684;28;20045;-60
2023/08/06 07:18:24;;;;;;;4.30;2.35;;;15.20;99.90;;;;;;5030575;28;20076;-61
2023/08/06 07:20:52;;;;;;;3.40;2.20;;;15.30;99.90;;;;;;5029419;28;20109;-61
2023/08/06 07:23:22;;;;;;;3.47;2.15;;;15.30;99.90;;;;;;5027759;28;20034;-61
2023/08/06 07:25:49;;;;;;;4.05;1.73;;;15.20;99.90;;;;;;5023635;28;20037;-61
2023/08/06 07:28:16;;;;;;;7.00;4.53;;;15.20;99.90;;;;;;5029337;28;20125;-60
2023/08/06 07:30:44;;;;;;;4.18;2.50;;;15.30;99.90;;;;;;5031320;28;20057;-60
2023/08/06 07:33:12;;;;;;;5.03;2.42;;;15.40;99.90;;;;;;5027809;28;20038;-61
2023/08/06 07:35:38;;;;;;;;;;;15.40;99.90;;;;;;5031192;28;20048;-61
2023/08/06 07:38:06;;;;;;;2.22;1.77;;;15.50;99.90;;;;;;5029839;28;19932;-61
2023/08/06 07:40:35;;;;;;;3.35;1.95;;;15.60;99.90;;;;;;5030459;28;20041;-61
2023/08/06 07:43:01;;;;;;;3.67;2.05;;;15.70;99.90;;;;;;5027988;28;20384;-61
2023/08/06 07:45:32;;;;;;;3.33;2.40;;;15.80;99.90;;;;;;5029416;28;20042;-61
2023/08/06 07:47:58;;;;;;;3.05;2.40;;;15.80;99.90;;;;;;5024965;28;20041;-60
2023/08/06 07:50:25;;;;;;;3.85;2.50;;;15.80;99.90;;;;;;5031425;28;20048;-61
2023/08/06 07:52:52;;;;;;;5.65;2.80;;;15.70;99.90;;;;;;5029226;28;20041;-61
2023/08/06 07:55:19;;;;;;;4.95;2.38;;;15.60;99.90;;;;;;5013279;28;20045;-59
2023/08/06 07:57:45;;;;;;;3.33;2.10;;;15.50;99.90;;;;;;5031240;28;20048;-61
2023/08/06 08:00:12;;;;;;;2.80;2.30;;;15.50;99.90;;;;;;5029529;28;20037;-60
2023/08/06 08:02:40;;;;;;;2.80;2.38;;;15.30;99.90;;;;;;5031097;28;20033;-61
2023/08/06 08:05:08;;;;;;;3.83;2.10;;;15.30;99.90;;;;;;5022386;28;20403;-61
2023/08/06 08:07:34;;;;;;;4.85;2.83;;;15.40;99.90;;;;;;5030942;28;20565;-61
2023/08/06 08:10:01;;;;;;;5.30;3.17;;;15.50;99.90;;;;;;5030589;28;20037;-60
2023/08/06 08:12:28;;;;;;;3.60;2.22;;;15.50;99.90;;;;;;5029820;28;20045;-61
2023/08/06 08:14:55;;;;;;;4.07;2.13;;;15.50;99.90;;;;;;5030408;28;20658;-61
2023/08/06 08:17:21;;;;;;;4.80;2.42;;;15.50;99.90;;;;;;5030727;28;20045;-60
2023/08/06 08:19:48;;;;;;;5.20;2.50;;;15.50;99.90;;;;;;5023433;28;20050;-60
2023/08/06 08:22:15;;;;;;;2.53;2.30;;;15.50;99.90;;;;;;5030935;28;20049;-59
2023/08/06 08:24:42;;;;;;;4.30;2.60;;;15.50;99.90;;;;;;5021798;28;20038;-61
2023/08/06 08:27:08;;;;;;;3.92;2.75;;;15.50;99.90;;;;;;5027265;28;20050;-60
2023/08/06 08:29:35;;;;;;;5.55;2.58;;;15.40;99.90;;;;;;5024378;28;20049;-59
2023/08/06 08:32:02;;;;;;;4.53;2.30;;;15.30;99.90;;;;;;5031021;28;20058;-60
2023/08/06 08:34:28;;;;;;;5.72;3.38;;;15.20;99.90;;;;;;5030219;28;20037;-61
2023/08/06 08:36:55;;;;;;;8.88;4.03;;;15.20;99.90;;;;;;5023405;28;20056;-59
2023/08/06 08:39:22;;;;;;;6.50;2.63;;;15.10;99.90;;;;;;5021822;28;20117;-60
2023/08/06 08:41:49;;;;;;;6.47;3.78;;;15.10;99.90;;;;;;5030019;28;20041;-61
2023/08/06 08:44:17;;;;;;;4.10;2.97;;;15.20;99.90;;;;;;5011778;28;20112;-61
2023/08/06 08:46:45;;;;;;;6.65;2.85;;;15.30;99.90;;;;;;5030456;28;20455;-61
2023/08/06 08:49:12;;;;;;;5.40;3.33;;;15.40;99.90;;;;;;5029887;28;20045;-61
2023/08/06 08:51:38;;;;;;;8.00;4.03;;;15.50;99.90;;;;;;5012812;28;20044;-60
2023/08/06 08:54:07;;;;;;;5.47;3.88;;;15.60;99.90;;;;;;5028139;28;20053;-61
2023/08/06 08:56:35;;;;;;;5.60;3.38;;;15.80;99.90;;;;;;5021222;28;20049;-61
2023/08/06 08:59:02;;;;;;;;;;;16.00;99.90;;;;;;5019010;28;20053;-60
2023/08/06 09:01:29;;;;;;;4.47;2.58;;;16.00;99.90;;;;;;5028862;28;19925;-61
2023/08/06 09:03:57;;;;;;;;;;;16.30;99.90;;;;;;5024331;28;20073;-60
2023/08/06 09:06:26;;;;;;;;;;;16.50;99.90;;;;;;5028869;28;19925;-60
2023/08/06 09:09:08;;;;;;;2.95;2.05;;;16.60;99.90;;;;;;5028504;28;19931;-60
2023/08/06 09:11:42;;;;;;;3.38;1.70;;;16.70;99.90;;;;;;5028118;28;20053;-61
2023/08/06 09:14:09;;;;;;;6.25;2.65;;;16.70;99.90;;;;;;5025556;28;20402;-61
2023/08/06 09:16:36;;;;;;;;;;;16.70;99.90;;;;;;5030966;28;20040;-62
2023/08/06 09:19:15;;;;;;;2.35;1.48;;;16.60;99.90;;;;;;5024520;28;19969;-60
2023/08/06 09:21:43;;;;;;;3.05;1.38;;;16.80;99.90;;;;;;5018366;28;20045;-60
2023/08/06 09:24:11;;;;;;;2.20;1.27;;;16.80;99.90;;;;;;5010524;28;20048;-60
2023/08/06 09:26:43;;;;;;;2.00;1.02;;;16.90;99.90;;;;;;5026698;28;20038;-61
2023/08/06 09:29:11;;;;;;;2.17;1.13;;;17.00;99.90;;;;;;5030616;28;20049;-59
2023/08/06 09:31:46;;;;;;;1.95;1.10;;;17.10;99.90;;;;;;5028721;28;20425;-61
2023/08/06 09:34:23;;;;;;;3.97;1.52;;;17.00;99.90;;;;;;5029468;28;20060;-60
2023/08/06 09:36:51;;;;;;;1.80;1.17;;;17.00;99.90;;;;;;5021423;28;20038;-61
2023/08/06 09:39:20;;;;;;;3.80;1.65;;;16.80;99.90;;;;;;5013090;28;20045;-61
2023/08/06 09:41:50;;;;;;;1.48;0.93;;;16.70;99.90;;;;;;5020843;28;20037;-60
2023/08/06 09:44:18;;;;;;;2.63;1.20;;;16.60;99.90;;;;;;5022483;28;20041;-61
2023/08/06 09:46:51;;;;;;;4.18;1.38;;;16.70;99.90;;;;;;5022121;28;20486;-61
2023/08/06 09:49:27;;;;;;;3.15;1.13;;;16.60;99.90;;;;;;5030140;28;20044;-61
2023/08/06 09:51:55;;;;;;;1.83;0.98;;;16.50;99.90;;;;;;5022252;28;20053;-61
2023/08/06 09:54:23;;;;;;;1.75;1.30;;;16.70;99.90;;;;;;5028624;28;20041;-59
2023/08/06 09:56:55;;;;;;;3.15;1.00;;;16.80;99.90;;;;;;5030076;28;20092;-61
2023/08/06 09:59:23;;;;;;;2.45;1.10;;;17.00;99.90;;;;;;5034342;28;20120;-61
2023/08/06 10:01:51;;;;;;;2.38;1.20;;;17.20;99.90;;;;;;5025100;28;20120;-61
2023/08/06 10:04:20;;;;;;;3.38;1.20;;;17.40;99.90;;;;;;5025580;28;20091;-60
2023/08/06 10:06:54;;;;;;;2.28;1.10;;;17.80;99.90;;;;;;5003077;28;20057;-61
2023/08/06 10:09:21;;;;;;;2.65;1.40;;;18.00;99.90;;;;;;5016263;28;20063;-61
2023/08/06 10:11:52;;;;;;;2.20;1.05;;;18.20;99.90;;;;;;5021373;28;20045;-61
2023/08/06 10:14:26;;;;;;;4.28;1.10;;;18.30;99.90;;;;;;5021725;28;20072;-60
2023/08/06 10:16:54;;;;;;;1.15;0.90;;;18.10;99.90;;;;;;5030774;28;20503;-61
2023/08/06 10:19:21;;;;;;;1.83;1.00;;;17.90;99.90;;;;;;5024876;28;20041;-61
2023/08/06 10:22:13;;;;;;;1.45;1.25;;;17.70;99.90;;;;;;5032792;28;20076;-61
2023/08/06 10:24:53;;;;;;;1.63;0.98;;;17.70;99.90;;;;;;5029950;28;20088;-60
2023/08/06 10:27:30;;;;;;;2.22;0.85;;;17.40;99.90;;;;;;5028524;28;20055;-60
2023/08/06 10:30:25;;;;;;;1.35;0.80;;;17.10;99.90;;;;;;5028983;28;20388;-61
2023/08/06 10:32:57;;;;;;;1.70;1.02;;;16.80;99.90;;;;;;5032425;28;20049;-61
2023/08/06 10:35:31;;;;;;;3.22;1.00;;;16.70;99.90;;;;;;5032437;28;20055;-60
2023/08/06 10:38:02;;;;;;;1.55;0.73;;;16.50;99.90;;;;;;5025869;28;20121;-61
2023/08/06 10:40:30;;;;;;;1.02;0.77;;;16.30;99.90;;;;;;5031816;28;20069;-57
2023/08/06 10:43:01;;;;;;;2.00;0.80;;;16.30;99.90;;;;;;5022595;28;20688;-61
2023/08/06 10:45:30;;;;;;;1.17;0.63;;;16.40;99.90;;;;;;5027591;28;20397;-61
2023/08/06 10:47:57;;;;;;;1.73;1.10;;;16.30;99.90;;;;;;5023020;28;20372;-61
2023/08/06 10:50:25;;;;;;;1.65;1.27;;;16.60;99.90;;;;;;5031656;28;20046;-61
2023/08/06 10:52:52;;;;;;;1.73;1.08;;;16.80;99.90;;;;;;5022566;28;20123;-62
2023/08/06 10:55:27;;;;;;;1.25;1.00;;;17.10;99.90;;;;;;5031960;28;20041;-62
2023/08/06 10:57:55;;;;;;;2.67;1.42;;;17.50;99.90;;;;;;5030757;28;20053;-62
2023/08/06 11:00:23;;;;;;;2.13;1.05;;;17.60;99.90;;;;;;5028976;28;20053;-61
2023/08/06 11:02:54;;;;;;;0.75;0.75;;;17.60;99.90;;;;;;5025712;28;20442;-61
2023/08/06 11:05:21;;;;;;;1.10;0.90;;;17.50;99.90;;;;;;5032678;28;20056;-61
2023/08/06 11:07:49;;;;;;;1.25;0.55;;;17.60;99.90;;;;;;5030993;28;20033;-61
2023/08/06 11:10:16;;;;;;;1.63;0.60;;;17.60;99.90;;;;;;5023920;28;20034;-61
2023/08/06 11:12:43;;;;;;;1.13;0.60;;;17.60;99.90;;;;;;5031415;28;20060;-61
2023/08/06 11:15:11;;;;;;;2.10;0.65;;;17.50;99.90;;;;;;5022605;28;20412;-62
2023/08/06 11:17:40;;;;;;;0.65;0.60;;;17.20;99.90;;;;;;5026977;28;20037;-61
2023/08/06 11:20:08;;;;;;;2.95;0.50;;;17.10;99.90;;;;;;5027771;28;20034;-61
2023/08/06 11:22:36;;;;;;;2.15;0.40;;;16.90;99.90;;;;;;5030508;28;20053;-61
2023/08/06 11:25:03;;;;;;;0.55;0.50;;;16.60;99.90;;;;;;5027453;28;20112;-61
2023/08/06 11:27:30;;;;;;;1.35;0.50;;;16.70;99.90;;;;;;5024800;28;20073;-61
2023/08/06 11:29:57;;;;;;;0.73;0.50;;;17.00;99.90;;;;;;5025674;28;20360;-62
2023/08/06 11:32:24;;;;;;;2.78;0.30;;;17.30;99.90;;;;;;5021092;28;20048;-60
2023/08/06 11:34:54;;;;;;;3.60;0.60;;;17.30;99.90;;;;;;5028701;28;20426;-61
2023/08/06 11:37:25;;;;;;;3.50;0.40;;;17.10;99.90;;;;;;5022232;28;20042;-61
2023/08/06 11:39:52;;;;;;;0.30;0.30;;;17.10;99.90;;;;;;5030808;28;20091;-61
2023/08/06 11:42:19;;;;;;;0.90;0.30;;;17.20;99.90;;;;;;5024440;28;20073;-62
2023/08/06 11:44:47;;;;;;;0.30;0.28;;;17.10;99.90;;;;;;5026321;28;20467;-62
2023/08/06 11:47:14;;;;;;;;;;;17.00;99.90;;;;;;5031743;28;20045;-62
2023/08/06 11:49:49;;;;;;;1.20;0.20;;;16.80;99.90;;;;;;5032579;28;20292;-61
2023/08/06 11:52:26;;;;;;;0.45;0.20;;;16.80;99.90;;;;;;5024294;28;20040;-62
2023/08/06 11:55:11;;;;;;;1.55;0.20;;;16.70;99.90;;;;;;5022831;28;20061;-62
2023/08/06 11:57:39;;;;;;;0.45;0.20;;;16.50;99.90;;;;;;5031272;28;20045;-59
2023/08/06 12:00:12;;;;;;;0.10;0.10;;;16.50;99.90;;;;;;5030941;28;20071;-61
2023/08/06 12:02:41;;;;;;;0.65;0.10;;;16.60;99.90;;;;;;5030853;28;20037;-61
2023/08/06 12:05:16;;;;;;;2.05;0.10;;;16.70;99.90;;;;;;5031685;28;20140;-61
2023/08/06 12:07:48;;;;;;;0.32;0.25;;;16.80;99.90;;;;;;5021146;28;20043;-61
2023/08/06 12:10:15;;;;;;;1.45;0.30;;;16.80;99.90;;;;;;5029388;28;20510;-61
2023/08/06 12:12:42;;;;;;;0.15;0.10;;;16.80;99.90;;;;;;5031197;28;20052;-61
2023/08/06 12:15:10;;;;;;;0.25;0.13;;;16.90;99.90;;;;;;5030978;28;20120;-61
2023/08/06 12:17:37;;;;;;;0.10;0.10;;;17.10;99.90;;;;;;5019620;28;20033;-61
2023/08/06 12:20:05;;;;;;;0.65;0.30;;;17.10;99.90;;;;;;5022885;28;20046;-60
2023/08/06 12:23:20;;;;;;;0.15;0.10;;;17.20;99.90;;;;;;5184789;27;20106;-59
2023/08/06 12:25:46;;;;;;;0.10;0.10;;;17.00;99.90;;;;;;5169595;27;20035;-53
2023/08/06 12:28:13;;;;;;;1.88;0.10;;;16.80;99.90;;;;;;5165852;27;20046;-59
2023/08/06 12:30:42;;;;;;;0.10;0.10;;;16.70;99.90;;;;;;5167038;27;20033;-59
2023/08/06 12:33:09;;;;;;;0.17;0.17;;;16.80;99.90;;;;;;5167967;27;20048;-55
2023/08/06 12:35:38;;;;;;;0.30;0.30;;;16.90;99.90;;;;;;5170033;27;20508;-60
2023/08/06 12:38:04;;;;;;;0.98;0.25;;;16.90;99.90;;;;;;5162003;27;20042;-57
2023/08/06 12:40:31;;;;;;;0.10;0.10;;;16.90;99.90;;;;;;5169565;27;20556;-59
2023/08/06 12:43:04;;;;;;;0.28;0.20;;;16.80;99.90;;;;;;5147811;27;20042;-59
2023/08/06 12:45:31;;;;;;;0.20;0.20;;;16.90;99.90;;;;;;5159790;27;20066;-59
2023/08/06 12:47:58;;;;;;;0.20;0.20;;;17.00;99.90;;;;;;5170256;27;20031;-56
2023/08/06 12:50:25;;;;;;;0.10;0.10;;;16.90;99.90;;;;;;5167367;27;20062;-60
2023/08/06 12:52:52;;;;;;;0.75;0.10;;;16.90;99.90;;;;;;5168930;27;20046;-58
2023/08/06 12:55:18;;;;;;;0.10;0.10;;;16.90;99.90;;;;;;5164309;27;20046;-59